createdAt,value
2022-12-23T00:00:07.550Z,100.00
2022-12-23T00:01:16.234Z,100.00
2022-12-23T00:02:18.031Z,100.00
2022-12-23T00:03:22.103Z,99.64
2022-12-23T00:04:24.719Z,98.83
2022-12-23T00:05:26.257Z,98.13
2022-12-23T00:06:28.791Z,97.82
2022-12-23T00:07:30.408Z,98.72
2022-12-23T00:08:32.851Z,98.11
2022-12-23T00:09:35.374Z,98.36
2022-12-23T00:10:38.603Z,98.26
2022-12-23T00:12:01.757Z,98.20
2022-12-23T00:13:24.044Z,98.35
2022-12-23T00:14:44.028Z,99.65
2022-12-23T00:15:45.698Z,99.85
2022-12-23T00:16:48.240Z,99.70
2022-12-23T00:17:49.870Z,99.55
2022-12-23T00:18:54.351Z,99.70
2022-12-23T00:19:55.846Z,99.70
2022-12-23T00:21:04.814Z,99.65
2022-12-23T00:22:10.703Z,99.05
2022-12-23T00:23:12.194Z,99.33
2022-12-23T00:24:14.712Z,99.94
2022-12-23T00:25:16.438Z,100.00
2022-12-23T00:26:22.492Z,99.96
2022-12-23T00:27:23.983Z,100.00
2022-12-23T00:28:27.997Z,100.00
2022-12-23T00:29:29.733Z,100.00
2022-12-23T00:30:32.200Z,100.00
2022-12-23T00:31:36.933Z,100.00
2022-12-23T00:32:38.646Z,99.29
2022-12-23T00:33:42.872Z,98.85
2022-12-23T00:34:45.669Z,98.07
2022-12-23T00:35:48.688Z,97.89
2022-12-23T00:36:50.248Z,97.51
2022-12-23T00:37:52.719Z,97.47
2022-12-23T00:39:13.706Z,97.35
2022-12-23T00:40:33.706Z,97.70
2022-12-23T00:42:02.390Z,99.32
2022-12-23T00:43:04.898Z,100.00
2022-12-23T00:44:06.363Z,99.81
2022-12-23T00:45:16.349Z,99.03
2022-12-23T00:46:17.951Z,98.30
2022-12-23T00:47:38.287Z,98.01
2022-12-23T00:48:58.305Z,98.18
2022-12-23T00:50:02.060Z,99.25
2022-12-23T00:51:03.807Z,99.36
2022-12-23T00:52:09.103Z,98.73
2022-12-23T00:53:10.695Z,98.03
2022-12-23T00:54:13.158Z,97.16
2022-12-23T00:55:14.632Z,96.86
2022-12-23T00:56:17.086Z,96.16
2022-12-23T00:57:19.518Z,95.99
2022-12-23T00:58:22.058Z,95.70
2022-12-23T00:59:24.562Z,95.13
2022-12-23T01:00:40.994Z,94.87
2022-12-23T01:02:01.106Z,95.79
2022-12-23T01:03:19.689Z,96.13
2022-12-23T01:04:39.678Z,97.35
2022-12-23T01:05:43.465Z,98.45
2022-12-23T01:06:45.038Z,97.63
2022-12-23T01:07:47.651Z,97.70
2022-12-23T01:08:49.186Z,97.27
2022-12-23T01:09:51.637Z,97.15
2022-12-23T01:10:53.297Z,98.41
2022-12-23T01:11:55.912Z,99.15
2022-12-23T01:12:57.461Z,99.08
2022-12-23T01:13:59.894Z,99.72
2022-12-23T01:15:01.424Z,100.00
2022-12-23T01:16:04.996Z,100.00
2022-12-23T01:17:07.778Z,100.00
2022-12-23T01:18:10.256Z,100.00
2022-12-23T01:19:11.889Z,100.00
2022-12-23T01:20:14.793Z,100.00
2022-12-23T01:21:17.706Z,100.00
2022-12-23T01:22:20.148Z,100.00
2022-12-23T01:23:21.767Z,100.00
2022-12-23T01:24:24.264Z,100.00
2022-12-23T01:25:25.767Z,100.00
2022-12-23T01:26:28.277Z,100.00
2022-12-23T01:27:29.770Z,100.00
2022-12-23T01:28:37.333Z,100.00
2022-12-23T01:29:38.891Z,100.00
2022-12-23T01:30:41.372Z,100.00
2022-12-23T01:31:43.020Z,100.00
2022-12-23T01:32:45.533Z,100.00
2022-12-23T01:33:50.045Z,100.00
2022-12-23T01:34:52.456Z,100.00
2022-12-23T01:36:02.069Z,100.00
2022-12-23T01:37:06.572Z,100.00
2022-12-23T01:38:08.143Z,100.00
2022-12-23T01:39:10.571Z,100.00
2022-12-23T01:40:12.102Z,100.00
2022-12-23T01:41:39.550Z,100.00
2022-12-23T01:42:43.993Z,100.00
2022-12-23T01:43:48.317Z,100.00
2022-12-23T01:44:56.038Z,100.00
2022-12-23T01:45:58.456Z,100.00
2022-12-23T01:47:00.049Z,100.00
2022-12-23T01:48:06.148Z,100.00
2022-12-23T01:49:07.728Z,100.00
2022-12-23T01:50:15.049Z,100.00
2022-12-23T01:51:20.671Z,100.00
2022-12-23T01:52:25.042Z,100.00
2022-12-23T01:53:30.775Z,100.00
2022-12-23T01:54:33.823Z,100.00
2022-12-23T01:55:40.722Z,99.53
2022-12-23T01:56:42.272Z,99.47
2022-12-23T01:57:45.839Z,100.00
2022-12-23T01:58:50.477Z,99.60
2022-12-23T02:00:10.903Z,99.42
2022-12-23T02:01:31.986Z,98.91
2022-12-23T02:02:55.212Z,97.82
2022-12-23T02:04:01.497Z,97.29
2022-12-23T02:05:03.115Z,96.74
2022-12-23T02:06:20.260Z,96.93
2022-12-23T02:07:41.478Z,96.60
2022-12-23T02:09:01.889Z,97.19
2022-12-23T02:10:05.504Z,96.67
2022-12-23T02:11:31.703Z,95.97
2022-12-23T02:12:47.327Z,96.85
2022-12-23T02:14:17.375Z,97.73
2022-12-23T02:15:49.520Z,97.29
2022-12-23T02:17:00.466Z,98.10
2022-12-23T02:18:21.285Z,98.55
2022-12-23T02:19:35.656Z,100.00
2022-12-23T02:21:02.780Z,100.00
2022-12-23T02:22:23.108Z,100.00
2022-12-23T02:23:58.450Z,100.00
2022-12-23T02:25:43.947Z,100.00
2022-12-23T02:27:00.267Z,100.00
2022-12-23T02:28:23.361Z,100.00
2022-12-23T02:29:53.672Z,100.00
2022-12-23T02:31:09.521Z,100.00
2022-12-23T02:32:16.047Z,100.00
2022-12-23T02:33:31.213Z,100.00
2022-12-23T02:34:40.891Z,100.00
2022-12-23T02:35:47.705Z,100.00
2022-12-23T02:36:59.321Z,100.00
2022-12-23T02:38:10.862Z,100.00
2022-12-23T02:39:21.148Z,100.00
2022-12-23T02:40:32.054Z,100.00
2022-12-23T02:41:39.601Z,99.94
2022-12-23T02:42:46.311Z,98.93
2022-12-23T02:43:52.467Z,98.63
2022-12-23T02:45:00.101Z,98.90
2022-12-23T02:46:09.966Z,98.33
2022-12-23T02:47:15.427Z,98.72
2022-12-23T02:48:24.706Z,98.90
2022-12-23T02:49:31.353Z,99.48
2022-12-23T02:50:38.095Z,99.47
2022-12-23T02:51:44.360Z,99.47
2022-12-23T02:52:49.670Z,98.47
2022-12-23T02:53:54.787Z,98.14
2022-12-23T02:55:01.067Z,97.37
2022-12-23T02:56:05.759Z,97.90
2022-12-23T02:57:11.142Z,97.49
2022-12-23T02:58:15.144Z,97.35
2022-12-23T02:59:22.638Z,97.02
2022-12-23T03:00:24.301Z,96.34
2022-12-23T03:01:32.694Z,95.75
2022-12-23T03:02:38.102Z,95.72
2022-12-23T03:03:42.375Z,95.41
2022-12-23T03:04:44.056Z,95.10
2022-12-23T03:05:48.710Z,94.57
2022-12-23T03:06:53.735Z,94.85
2022-12-23T03:07:59.444Z,94.66
2022-12-23T03:09:01.118Z,95.10
2022-12-23T03:10:13.353Z,95.40
2022-12-23T03:11:16.806Z,95.61
2022-12-23T03:12:31.684Z,95.39
2022-12-23T03:13:46.506Z,97.36
2022-12-23T03:15:03.177Z,99.80
2022-12-23T03:16:15.164Z,99.31
2022-12-23T03:17:32.895Z,99.13
2022-12-23T03:18:45.414Z,99.14
2022-12-23T03:19:54.811Z,100.00
2022-12-23T03:21:03.476Z,100.00
2022-12-23T03:22:11.757Z,100.00
2022-12-23T03:23:21.680Z,100.00
2022-12-23T03:24:33.658Z,100.00
2022-12-23T03:25:40.313Z,100.00
2022-12-23T03:26:50.781Z,100.00
2022-12-23T03:27:59.587Z,100.00
2022-12-23T03:29:09.961Z,100.00
2022-12-23T03:30:14.073Z,100.00
2022-12-23T03:31:23.595Z,100.00
2022-12-23T03:32:31.534Z,100.00
2022-12-23T03:33:37.890Z,100.00
2022-12-23T03:34:43.103Z,100.00
2022-12-23T03:35:50.315Z,100.00
2022-12-23T03:36:56.274Z,100.00
2022-12-23T03:38:00.404Z,100.00
2022-12-23T03:39:06.823Z,100.00
2022-12-23T03:40:17.573Z,100.00
2022-12-23T03:41:23.506Z,100.00
2022-12-23T03:42:30.033Z,100.00
2022-12-23T03:43:35.740Z,100.00
2022-12-23T03:45:03.678Z,100.00
2022-12-23T03:46:12.665Z,100.00
2022-12-23T03:47:19.688Z,100.00
2022-12-23T03:48:27.801Z,100.00
2022-12-23T03:49:34.597Z,100.00
2022-12-23T03:50:37.813Z,100.00
2022-12-23T03:51:46.642Z,100.00
2022-12-23T03:52:53.378Z,100.00
2022-12-23T03:54:00.906Z,100.00
2022-12-23T03:55:06.705Z,100.00
2022-12-23T03:56:13.100Z,100.00
2022-12-23T03:57:15.350Z,100.00
2022-12-23T03:58:26.009Z,99.54
2022-12-23T03:59:31.520Z,100.00
2022-12-23T04:00:38.939Z,100.00
2022-12-23T04:01:48.221Z,100.00
2022-12-23T04:02:58.606Z,100.00
2022-12-23T04:04:06.205Z,100.00
2022-12-23T04:05:18.189Z,100.00
2022-12-23T04:06:21.266Z,100.00
2022-12-23T04:07:29.735Z,100.00
2022-12-23T04:08:35.729Z,100.00
2022-12-23T04:09:39.566Z,100.00
2022-12-23T04:10:41.350Z,100.00
2022-12-23T04:11:46.123Z,100.00
2022-12-23T04:12:47.933Z,100.00
2022-12-23T04:13:50.417Z,100.00
2022-12-23T04:14:52.155Z,100.00
2022-12-23T04:15:55.254Z,100.00
2022-12-23T04:16:58.682Z,100.00
2022-12-23T04:18:01.191Z,100.00
2022-12-23T04:19:03.998Z,100.00
2022-12-23T04:20:08.410Z,100.00
2022-12-23T04:21:09.945Z,100.00
2022-12-23T04:22:12.803Z,100.00
2022-12-23T04:23:14.343Z,100.00
2022-12-23T04:24:16.923Z,100.00
2022-12-23T04:25:18.700Z,100.00
2022-12-23T04:26:21.171Z,100.00
2022-12-23T04:27:22.714Z,99.82
2022-12-23T04:28:25.189Z,100.00
2022-12-23T04:29:26.722Z,100.00
2022-12-23T04:30:33.982Z,99.63
2022-12-23T04:31:36.100Z,99.69
2022-12-23T04:32:39.138Z,100.00
2022-12-23T04:33:40.705Z,100.00
2022-12-23T04:34:44.704Z,98.26
2022-12-23T04:35:46.182Z,98.12
2022-12-23T04:36:48.656Z,97.93
2022-12-23T04:37:50.255Z,98.06
2022-12-23T04:38:52.657Z,97.38
2022-12-23T04:39:54.339Z,96.97
2022-12-23T04:40:56.774Z,97.17
2022-12-23T04:41:58.255Z,97.21
2022-12-23T04:43:00.662Z,97.03
2022-12-23T04:44:02.187Z,96.30
2022-12-23T04:45:05.163Z,95.76
2022-12-23T04:46:07.035Z,95.84
2022-12-23T04:47:09.611Z,96.04
2022-12-23T04:48:11.169Z,96.72
2022-12-23T04:49:13.615Z,96.85
2022-12-23T04:50:17.173Z,96.52
2022-12-23T04:51:19.649Z,96.00
2022-12-23T04:52:21.219Z,95.89
2022-12-23T04:53:23.718Z,95.58
2022-12-23T04:54:25.246Z,97.31
2022-12-23T04:55:27.683Z,97.31
2022-12-23T04:56:29.235Z,97.56
2022-12-23T04:57:31.670Z,97.44
2022-12-23T04:58:33.269Z,98.12
2022-12-23T04:59:35.686Z,98.94
2022-12-23T05:00:39.765Z,100.00
2022-12-23T05:01:43.149Z,100.00
2022-12-23T05:02:44.799Z,99.23
2022-12-23T05:03:47.383Z,99.26
2022-12-23T05:04:48.844Z,99.07
2022-12-23T05:05:52.660Z,99.37
2022-12-23T05:06:54.135Z,98.78
2022-12-23T05:08:04.243Z,98.08
2022-12-23T05:09:05.891Z,98.04
2022-12-23T05:10:10.268Z,98.14
2022-12-23T05:11:11.878Z,99.08
2022-12-23T05:12:14.331Z,98.83
2022-12-23T05:13:15.864Z,98.47
2022-12-23T05:14:18.379Z,98.26
2022-12-23T05:15:20.006Z,98.16
2022-12-23T05:16:22.527Z,97.52
2022-12-23T05:17:24.232Z,97.80
2022-12-23T05:18:26.735Z,97.28
2022-12-23T05:19:28.294Z,98.41
2022-12-23T05:20:30.762Z,99.25
2022-12-23T05:21:33.568Z,100.00
2022-12-23T05:22:36.056Z,99.70
2022-12-23T05:23:38.073Z,98.56
2022-12-23T05:24:40.508Z,98.51
2022-12-23T05:25:42.004Z,98.45
2022-12-23T05:26:48.042Z,98.69
2022-12-23T05:27:50.242Z,99.05
2022-12-23T05:28:52.731Z,99.61
2022-12-23T05:29:54.441Z,99.17
2022-12-23T05:31:00.513Z,98.90
2022-12-23T05:32:05.952Z,98.93
2022-12-23T05:33:07.553Z,97.95
2022-12-23T05:34:10.105Z,99.25
2022-12-23T05:35:11.773Z,99.38
2022-12-23T05:36:14.672Z,99.37
2022-12-23T05:37:17.506Z,99.17
2022-12-23T05:38:20.217Z,99.28
2022-12-23T05:39:21.751Z,99.26
2022-12-23T05:40:25.193Z,99.16
2022-12-23T05:41:31.351Z,98.86
2022-12-23T05:42:33.764Z,99.80
2022-12-23T05:43:38.798Z,99.24
2022-12-23T05:44:40.265Z,98.76
2022-12-23T05:45:42.974Z,98.87
2022-12-23T05:46:44.626Z,98.56
2022-12-23T05:47:47.213Z,98.18
2022-12-23T05:48:49.224Z,98.65
2022-12-23T05:49:51.635Z,98.15
2022-12-23T05:50:53.551Z,98.44
2022-12-23T05:51:55.989Z,98.79
2022-12-23T05:52:58.825Z,99.08
2022-12-23T05:54:01.278Z,98.91
2022-12-23T05:55:02.842Z,99.41
2022-12-23T05:56:06.417Z,98.68
2022-12-23T05:57:10.775Z,99.96
2022-12-23T05:58:13.276Z,99.69
2022-12-23T05:59:14.823Z,99.29
2022-12-23T06:00:18.068Z,99.09
2022-12-23T06:01:19.549Z,98.89
2022-12-23T06:02:22.332Z,99.38
2022-12-23T06:03:24.300Z,99.41
2022-12-23T06:04:27.205Z,98.89
2022-12-23T06:05:28.959Z,98.54
2022-12-23T06:06:31.499Z,97.93
2022-12-23T06:07:33.264Z,97.90
2022-12-23T06:08:36.979Z,97.99
2022-12-23T06:09:38.538Z,98.09
2022-12-23T06:10:40.972Z,98.72
2022-12-23T06:11:42.451Z,98.51
2022-12-23T06:12:44.947Z,98.45
2022-12-23T06:13:46.472Z,97.73
2022-12-23T06:14:48.943Z,97.21
2022-12-23T06:15:51.382Z,99.55
2022-12-23T06:16:52.929Z,100.00
2022-12-23T06:17:56.877Z,100.00
2022-12-23T06:18:58.385Z,99.29
2022-12-23T06:20:00.990Z,99.09
2022-12-23T06:21:02.697Z,99.18
2022-12-23T06:22:05.178Z,99.21
2022-12-23T06:23:06.672Z,99.02
2022-12-23T06:24:10.880Z,98.65
2022-12-23T06:25:12.432Z,97.65
2022-12-23T06:26:14.885Z,97.77
2022-12-23T06:27:16.611Z,97.24
2022-12-23T06:28:19.224Z,95.76
2022-12-23T06:29:21.403Z,96.19
2022-12-23T06:30:23.923Z,96.51
2022-12-23T06:31:25.438Z,96.24
2022-12-23T06:32:31.654Z,96.03
2022-12-23T06:33:37.703Z,95.89
2022-12-23T06:34:40.122Z,95.65
2022-12-23T06:35:44.080Z,96.22
2022-12-23T06:36:45.609Z,97.53
2022-12-23T06:37:48.122Z,98.55
2022-12-23T06:38:49.564Z,98.09
2022-12-23T06:39:53.353Z,97.83
2022-12-23T06:40:54.862Z,98.10
2022-12-23T06:41:57.323Z,97.66
2022-12-23T06:42:58.836Z,99.03
2022-12-23T06:44:01.333Z,99.33
2022-12-23T06:45:04.020Z,99.38
2022-12-23T06:46:05.685Z,99.51
2022-12-23T06:47:08.378Z,98.78
2022-12-23T06:48:09.880Z,98.21
2022-12-23T06:49:13.740Z,98.00
2022-12-23T06:50:16.563Z,97.08
2022-12-23T06:51:18.073Z,98.32
2022-12-23T06:52:20.548Z,99.21
2022-12-23T06:53:22.058Z,98.18
2022-12-23T06:54:24.607Z,97.70
2022-12-23T06:55:28.600Z,97.12
2022-12-23T06:56:30.429Z,96.44
2022-12-23T06:57:32.994Z,96.14
2022-12-23T06:58:34.508Z,96.14
2022-12-23T06:59:36.909Z,96.76
2022-12-23T07:00:39.597Z,97.30
2022-12-23T07:01:41.237Z,96.56
2022-12-23T07:02:43.977Z,95.95
2022-12-23T07:03:45.938Z,96.10
2022-12-23T07:04:48.521Z,96.10
2022-12-23T07:05:51.090Z,95.83
2022-12-23T07:06:53.783Z,95.54
2022-12-23T07:07:55.327Z,95.89
2022-12-23T07:08:57.979Z,95.20
2022-12-23T07:09:59.537Z,95.43
2022-12-23T07:11:07.145Z,96.05
2022-12-23T07:12:09.648Z,97.43
2022-12-23T07:13:11.778Z,96.70
2022-12-23T07:14:14.276Z,96.98
2022-12-23T07:15:15.975Z,96.68
2022-12-23T07:16:18.571Z,96.30
2022-12-23T07:17:20.151Z,97.93
2022-12-23T07:18:23.121Z,98.05
2022-12-23T07:19:25.613Z,98.43
2022-12-23T07:20:27.123Z,98.51
2022-12-23T07:21:30.236Z,98.09
2022-12-23T07:22:32.106Z,97.44
2022-12-23T07:23:36.165Z,96.80
2022-12-23T07:24:37.883Z,97.17
2022-12-23T07:25:40.317Z,98.08
2022-12-23T07:26:43.131Z,97.34
2022-12-23T07:27:45.632Z,96.08
2022-12-23T07:28:48.632Z,97.09
2022-12-23T07:29:51.026Z,95.95
2022-12-23T07:30:52.571Z,96.02
2022-12-23T07:31:55.148Z,95.82
2022-12-23T07:32:56.742Z,95.14
2022-12-23T07:33:59.171Z,94.51
2022-12-23T07:35:00.756Z,95.65
2022-12-23T07:36:03.390Z,96.25
2022-12-23T07:37:05.090Z,96.80
2022-12-23T07:38:07.506Z,96.75
2022-12-23T07:39:08.983Z,97.21
2022-12-23T07:40:12.865Z,97.56
2022-12-23T07:41:14.324Z,98.48
2022-12-23T07:42:44.029Z,98.11
2022-12-23T07:43:40.585Z,97.40
2022-12-23T07:44:42.053Z,97.41
2022-12-23T07:45:44.527Z,97.54
2022-12-23T07:46:46.077Z,97.69
2022-12-23T07:47:48.545Z,98.04
2022-12-23T07:48:50.052Z,99.15
2022-12-23T07:49:52.512Z,98.83
2022-12-23T07:51:01.363Z,98.99
2022-12-23T07:52:03.911Z,99.69
2022-12-23T07:53:06.365Z,98.80
2022-12-23T07:54:08.774Z,98.29
2022-12-23T07:55:10.410Z,97.43
2022-12-23T07:56:12.831Z,97.70
2022-12-23T07:57:14.330Z,97.88
2022-12-23T07:58:18.079Z,97.52
2022-12-23T07:59:20.539Z,97.31
2022-12-23T08:00:22.496Z,97.59
2022-12-23T08:01:24.967Z,97.87
2022-12-23T08:02:26.611Z,97.50
2022-12-23T08:03:29.513Z,96.80
2022-12-23T08:04:31.257Z,96.29
2022-12-23T08:05:33.725Z,95.14
2022-12-23T08:06:35.533Z,94.50
2022-12-23T08:07:38.018Z,94.72
2022-12-23T08:08:41.456Z,94.70
2022-12-23T08:09:43.881Z,94.28
2022-12-23T08:10:48.529Z,95.13
2022-12-23T08:11:51.156Z,95.54
2022-12-23T08:12:53.591Z,95.61
2022-12-23T08:13:56.396Z,96.27
2022-12-23T08:14:58.911Z,96.02
2022-12-23T08:16:02.708Z,95.61
2022-12-23T08:17:05.336Z,94.80
2022-12-23T08:18:09.087Z,94.64
2022-12-23T08:19:11.507Z,94.47
2022-12-23T08:20:13.158Z,94.39
2022-12-23T08:21:17.928Z,95.46
2022-12-23T08:22:19.494Z,94.46
2022-12-23T08:23:24.963Z,95.01
2022-12-23T08:24:27.598Z,95.18
2022-12-23T08:25:29.124Z,95.40
2022-12-23T08:26:33.080Z,94.74
2022-12-23T08:27:38.229Z,94.71
2022-12-23T08:28:42.750Z,94.73
2022-12-23T08:29:46.509Z,94.12
2022-12-23T08:30:48.022Z,92.93
2022-12-23T08:31:51.665Z,93.59
2022-12-23T08:32:53.164Z,93.41
2022-12-23T08:33:57.664Z,94.03
2022-12-23T08:34:59.180Z,93.65
2022-12-23T08:36:01.657Z,93.59
2022-12-23T08:37:04.290Z,93.86
2022-12-23T08:38:05.777Z,94.34
2022-12-23T08:39:11.904Z,94.26
2022-12-23T08:40:13.512Z,94.45
2022-12-23T08:41:18.589Z,93.71
2022-12-23T08:42:20.109Z,93.89
2022-12-23T08:43:22.619Z,93.93
2022-12-23T08:44:27.055Z,94.02
2022-12-23T08:45:29.877Z,93.31
2022-12-23T08:46:32.866Z,94.12
2022-12-23T08:47:34.379Z,94.15
2022-12-23T08:48:37.028Z,93.71
2022-12-23T08:49:42.381Z,92.37
2022-12-23T08:50:45.896Z,91.88
2022-12-23T08:51:48.812Z,92.85
2022-12-23T08:52:53.126Z,93.30
2022-12-23T08:54:00.605Z,94.16
2022-12-23T08:55:02.975Z,94.15
2022-12-23T08:56:07.580Z,93.95
2022-12-23T08:57:11.900Z,94.32
2022-12-23T08:58:20.168Z,93.57
2022-12-23T08:59:26.506Z,93.31
2022-12-23T09:00:29.132Z,93.17
2022-12-23T09:01:33.843Z,93.15
2022-12-23T09:02:36.606Z,92.40
2022-12-23T09:03:40.751Z,92.44
2022-12-23T09:04:43.477Z,92.92
2022-12-23T09:05:45.069Z,93.73
2022-12-23T09:06:47.555Z,92.78
2022-12-23T09:07:50.840Z,92.96
2022-12-23T09:08:56.856Z,93.27
2022-12-23T09:09:58.439Z,93.76
2022-12-23T09:11:00.924Z,93.23
2022-12-23T09:12:03.441Z,94.14
2022-12-23T09:13:06.120Z,93.38
2022-12-23T09:14:10.409Z,93.12
2022-12-23T09:15:12.240Z,93.60
2022-12-23T09:16:17.808Z,93.39
2022-12-23T09:17:21.733Z,94.08
2022-12-23T09:18:23.221Z,94.08
2022-12-23T09:19:25.627Z,93.85
2022-12-23T09:20:27.122Z,93.29
2022-12-23T09:21:29.848Z,92.65
2022-12-23T09:22:33.174Z,92.54
2022-12-23T09:23:39.577Z,93.65
2022-12-23T09:24:42.040Z,93.98
2022-12-23T09:25:43.477Z,94.25
2022-12-23T09:26:46.065Z,94.16
2022-12-23T09:27:47.624Z,92.69
2022-12-23T09:28:53.073Z,93.78
2022-12-23T09:29:56.786Z,93.46
2022-12-23T09:30:59.332Z,94.03
2022-12-23T09:32:02.002Z,93.80
2022-12-23T09:33:06.695Z,94.31
2022-12-23T09:34:12.182Z,93.86
2022-12-23T09:35:13.799Z,94.15
2022-12-23T09:36:16.717Z,94.67
2022-12-23T09:37:20.412Z,94.53
2022-12-23T09:38:21.951Z,94.65
2022-12-23T09:39:25.687Z,93.62
2022-12-23T09:40:30.181Z,93.73
2022-12-23T09:41:46.290Z,94.18
2022-12-23T09:43:06.119Z,94.33
2022-12-23T09:44:22.691Z,93.22
2022-12-23T09:45:41.025Z,93.63
2022-12-23T09:46:48.810Z,93.41
2022-12-23T09:47:52.763Z,92.85
2022-12-23T09:48:59.930Z,92.64
2022-12-23T09:50:05.590Z,92.84
2022-12-23T09:51:08.999Z,92.59
2022-12-23T09:52:17.525Z,93.42
2022-12-23T09:53:22.354Z,92.97
2022-12-23T09:54:28.904Z,91.86
2022-12-23T09:55:40.537Z,92.83
2022-12-23T09:56:51.288Z,93.19
2022-12-23T09:58:01.031Z,93.55
2022-12-23T09:59:15.566Z,92.58
2022-12-23T10:00:20.312Z,92.23
2022-12-23T10:01:41.456Z,92.14
2022-12-23T10:03:01.235Z,91.53
2022-12-23T10:04:41.872Z,92.62
2022-12-23T10:05:56.785Z,92.52
2022-12-23T10:07:19.061Z,92.58
2022-12-23T10:08:29.370Z,91.75
2022-12-23T10:09:32.982Z,91.45
2022-12-23T10:10:40.531Z,91.54
2022-12-23T10:11:46.806Z,92.62
2022-12-23T10:12:52.413Z,92.08
2022-12-23T10:13:57.827Z,91.85
2022-12-23T10:15:02.516Z,91.79
2022-12-23T10:16:07.842Z,91.94
2022-12-23T10:17:16.316Z,91.81
2022-12-23T10:18:24.554Z,92.20
2022-12-23T10:19:34.389Z,92.05
2022-12-23T10:20:42.925Z,92.99
2022-12-23T10:21:48.768Z,93.01
2022-12-23T10:22:51.406Z,92.60
2022-12-23T10:23:56.164Z,92.46
2022-12-23T10:25:00.111Z,91.12
2022-12-23T10:26:08.497Z,90.43
2022-12-23T10:27:22.896Z,90.31
2022-12-23T10:28:29.768Z,90.90
2022-12-23T10:29:33.672Z,90.60
2022-12-23T10:31:05.752Z,90.80
2022-12-23T10:32:18.541Z,91.47
2022-12-23T10:33:23.054Z,91.22
2022-12-23T10:34:38.451Z,91.16
2022-12-23T10:35:46.154Z,90.30
2022-12-23T10:36:57.488Z,89.99
2022-12-23T10:38:08.263Z,90.09
2022-12-23T10:39:21.608Z,90.29
2022-12-23T10:40:28.249Z,90.39
2022-12-23T10:41:37.774Z,91.14
2022-12-23T10:42:45.908Z,91.05
2022-12-23T10:44:04.533Z,91.77
2022-12-23T10:45:17.486Z,91.84
2022-12-23T10:46:28.714Z,91.66
2022-12-23T10:47:43.294Z,91.96
2022-12-23T10:49:00.793Z,91.95
2022-12-23T10:50:29.464Z,91.75
2022-12-23T10:51:34.355Z,92.28
2022-12-23T10:52:40.177Z,92.30
2022-12-23T10:53:48.639Z,92.46
2022-12-23T10:54:50.155Z,91.95
2022-12-23T10:55:52.914Z,91.68
2022-12-23T10:57:00.033Z,91.75
2022-12-23T10:58:07.518Z,91.62
2022-12-23T10:59:14.957Z,91.39
2022-12-23T11:00:21.215Z,91.04
2022-12-23T11:01:27.321Z,91.04
2022-12-23T11:02:43.625Z,91.10
2022-12-23T11:03:55.110Z,91.12
2022-12-23T11:04:56.662Z,90.66
2022-12-23T11:06:01.122Z,90.53
2022-12-23T11:07:42.053Z,90.33
2022-12-23T11:08:30.394Z,90.54
2022-12-23T11:09:38.921Z,91.05
2022-12-23T11:10:41.536Z,91.46
2022-12-23T11:11:57.690Z,91.11
2022-12-23T11:13:01.371Z,91.68
2022-12-23T11:14:04.044Z,91.71
2022-12-23T11:15:30.954Z,90.79
2022-12-23T11:16:33.561Z,91.29
2022-12-23T11:17:35.913Z,91.47
2022-12-23T11:18:42.376Z,91.31
2022-12-23T11:19:45.111Z,90.41
2022-12-23T11:21:04.648Z,90.35
2022-12-23T11:22:06.341Z,90.62
2022-12-23T11:23:24.908Z,90.85
2022-12-23T11:24:34.429Z,90.98
2022-12-23T11:25:42.659Z,90.21
2022-12-23T11:26:46.121Z,90.84
2022-12-23T11:27:59.471Z,90.83
2022-12-23T11:29:07.107Z,89.86
2022-12-23T11:30:18.793Z,90.31
2022-12-23T11:31:28.108Z,90.96
2022-12-23T11:32:30.192Z,90.35
2022-12-23T11:33:35.162Z,90.12
2022-12-23T11:34:38.092Z,90.35
2022-12-23T11:35:40.734Z,91.24
2022-12-23T11:36:55.095Z,91.45
2022-12-23T11:38:02.889Z,90.27
2022-12-23T11:39:13.793Z,90.19
2022-12-23T11:40:23.887Z,90.81
2022-12-23T11:41:28.964Z,90.05
2022-12-23T11:42:34.069Z,89.37
2022-12-23T11:43:39.277Z,89.19
2022-12-23T11:44:44.112Z,88.90
2022-12-23T11:45:45.655Z,88.67
2022-12-23T11:46:48.458Z,88.52
2022-12-23T11:47:50.262Z,88.72
2022-12-23T11:49:06.371Z,88.65
2022-12-23T11:50:28.126Z,88.88
2022-12-23T11:51:29.674Z,88.75
2022-12-23T11:52:34.579Z,88.28
2022-12-23T11:53:36.625Z,88.38
2022-12-23T11:54:39.980Z,88.71
2022-12-23T11:55:49.260Z,88.27
2022-12-23T11:56:53.541Z,87.45
2022-12-23T11:57:57.599Z,87.71
2022-12-23T11:59:05.523Z,86.58
2022-12-23T12:00:18.502Z,86.24
2022-12-23T12:01:24.074Z,84.69
2022-12-23T12:02:33.484Z,83.88
2022-12-23T12:03:46.197Z,83.87
2022-12-23T12:04:56.822Z,84.84
2022-12-23T12:06:01.960Z,86.45
2022-12-23T12:07:05.056Z,86.53
2022-12-23T12:08:12.398Z,85.10
2022-12-23T12:09:14.320Z,85.97
2022-12-23T12:10:20.050Z,85.25
2022-12-23T12:11:27.824Z,85.06
2022-12-23T12:12:31.026Z,84.97
2022-12-23T12:13:38.268Z,85.13
2022-12-23T12:14:43.850Z,85.25
2022-12-23T12:15:52.506Z,86.14
2022-12-23T12:17:00.344Z,86.43
2022-12-23T12:18:07.899Z,86.40
2022-12-23T12:19:16.591Z,86.19
2022-12-23T12:20:28.505Z,85.28
2022-12-23T12:21:35.093Z,86.85
2022-12-23T12:22:42.385Z,87.12
2022-12-23T12:23:48.482Z,86.91
2022-12-23T12:24:55.574Z,86.79
2022-12-23T12:26:01.824Z,86.82
2022-12-23T12:27:07.385Z,86.17
2022-12-23T12:28:14.707Z,86.99
2022-12-23T12:29:20.761Z,87.33
2022-12-23T12:30:23.686Z,86.69
2022-12-23T12:31:31.289Z,86.94
2022-12-23T12:32:39.503Z,86.48
2022-12-23T12:33:48.502Z,86.90
2022-12-23T12:34:55.790Z,86.35
2022-12-23T12:36:07.451Z,86.87
2022-12-23T12:37:19.208Z,85.92
2022-12-23T12:38:26.890Z,87.00
2022-12-23T12:39:33.829Z,87.48
2022-12-23T12:40:41.834Z,86.84
2022-12-23T12:41:52.569Z,86.79
2022-12-23T12:43:00.338Z,86.12
2022-12-23T12:44:11.435Z,86.02
2022-12-23T12:45:20.784Z,86.41
2022-12-23T12:46:31.433Z,85.89
2022-12-23T12:47:54.133Z,85.53
2022-12-23T12:49:06.385Z,85.09
2022-12-23T12:50:13.703Z,85.76
2022-12-23T12:51:23.613Z,86.21
2022-12-23T12:52:27.405Z,86.95
2022-12-23T12:53:33.201Z,87.20
2022-12-23T12:54:44.099Z,86.26
2022-12-23T12:55:48.834Z,85.11
2022-12-23T12:56:52.730Z,84.70
2022-12-23T12:57:55.155Z,85.00
2022-12-23T12:58:56.969Z,85.62
2022-12-23T13:00:06.015Z,85.50
2022-12-23T13:01:23.816Z,84.77
2022-12-23T13:02:46.004Z,85.54
2022-12-23T13:04:10.572Z,86.06
2022-12-23T13:05:54.124Z,84.98
2022-12-23T13:07:06.119Z,86.07
2022-12-23T13:08:23.148Z,86.60
2022-12-23T13:09:36.941Z,86.68
2022-12-23T13:10:46.081Z,87.23
2022-12-23T13:12:04.310Z,86.85
2022-12-23T13:13:18.712Z,87.60
2022-12-23T13:14:30.818Z,87.56
2022-12-23T13:15:36.284Z,87.91
2022-12-23T13:16:51.341Z,87.47
2022-12-23T13:18:12.380Z,88.35
2022-12-23T13:19:21.979Z,88.02
2022-12-23T13:20:32.726Z,88.07
2022-12-23T13:21:44.558Z,87.70
2022-12-23T13:22:53.772Z,87.17
2022-12-23T13:24:05.192Z,87.57
2022-12-23T13:25:16.453Z,87.81
2022-12-23T13:26:30.749Z,87.92
2022-12-23T13:27:35.275Z,87.92
2022-12-23T13:28:44.298Z,88.14
2022-12-23T13:30:08.411Z,87.94
2022-12-23T13:31:20.222Z,88.58
2022-12-23T13:32:38.135Z,89.33
2022-12-23T13:33:49.683Z,89.54
2022-12-23T13:35:04.299Z,88.45
2022-12-23T13:36:20.255Z,87.95
2022-12-23T13:37:32.913Z,86.80
2022-12-23T13:38:53.046Z,85.79
2022-12-23T13:40:03.270Z,85.67
2022-12-23T13:41:13.868Z,85.19
2022-12-23T13:42:28.884Z,84.89
2022-12-23T13:43:41.412Z,84.54
2022-12-23T13:44:44.229Z,85.19
2022-12-23T13:45:47.324Z,84.96
2022-12-23T13:47:05.608Z,85.30
2022-12-23T13:48:34.696Z,85.68
2022-12-23T13:49:56.545Z,84.85
2022-12-23T13:51:05.859Z,85.06
2022-12-23T13:52:12.953Z,85.48
2022-12-23T13:53:24.612Z,85.96
2022-12-23T13:54:37.813Z,86.09
2022-12-23T13:55:54.265Z,86.01
2022-12-23T13:57:08.396Z,85.16
2022-12-23T13:58:16.367Z,84.42
2022-12-23T13:59:18.794Z,85.03
2022-12-23T14:00:26.344Z,85.07
2022-12-23T14:01:43.537Z,85.00
2022-12-23T14:02:52.906Z,85.82
2022-12-23T14:03:55.591Z,85.25
2022-12-23T14:04:58.778Z,85.03
2022-12-23T14:06:20.947Z,84.57
2022-12-23T14:07:23.576Z,83.77
2022-12-23T14:08:35.836Z,84.15
2022-12-23T14:09:38.474Z,84.66
2022-12-23T14:10:50.950Z,84.51